sensor_id;sensor_type;location;lat;lon;timestamp;P1;durP1;ratioP1;P2;durP2;ratioP2
57297;SDS011;43147;50.972;18.210;2023-04-19T00:01:48;23.50;;;14.50;;
57297;SDS011;43147;50.972;18.210;2023-04-19T00:04:13;25.90;;;14.40;;
57297;SDS011;43147;50.972;18.210;2023-04-19T00:06:39;21.90;;;13.70;;
57297;SDS011;43147;50.972;18.210;2023-04-19T00:09:07;23.40;;;14.40;;
57297;SDS011;43147;50.972;18.210;2023-04-19T00:11:33;23.40;;;14.40;;
57297;SDS011;43147;50.972;18.210;2023-04-19T00:13:58;22.40;;;13.00;;
57297;SDS011;43147;50.972;18.210;2023-04-19T00:16:24;24.70;;;15.40;;
57297;SDS011;43147;50.972;18.210;2023-04-19T00:18:50;23.60;;;15.30;;
57297;SDS011;43147;50.972;18.210;2023-04-19T00:21:15;25.80;;;15.20;;
57297;SDS011;43147;50.972;18.210;2023-04-19T00:23:41;22.40;;;15.00;;
57297;SDS011;43147;50.972;18.210;2023-04-19T00:26:07;23.30;;;14.80;;
57297;SDS011;43147;50.972;18.210;2023-04-19T00:28:32;24.50;;;15.20;;
57297;SDS011;43147;50.972;18.210;2023-04-19T00:30:58;26.60;;;16.10;;
57297;SDS011;43147;50.972;18.210;2023-04-19T00:33:24;26.60;;;15.90;;
57297;SDS011;43147;50.972;18.210;2023-04-19T00:35:50;22.60;;;15.40;;
57297;SDS011;43147;50.972;18.210;2023-04-19T00:38:15;27.20;;;17.00;;
57297;SDS011;43147;50.972;18.210;2023-04-19T00:40:40;24.90;;;16.90;;
57297;SDS011;43147;50.972;18.210;2023-04-19T00:43:06;24.50;;;15.60;;
57297;SDS011;43147;50.972;18.210;2023-04-19T00:45:31;27.50;;;16.00;;
57297;SDS011;43147;50.972;18.210;2023-04-19T00:48:01;24.80;;;15.90;;
57297;SDS011;43147;50.972;18.210;2023-04-19T00:50:27;28.70;;;18.90;;
57297;SDS011;43147;50.972;18.210;2023-04-19T00:52:53;25.20;;;15.10;;
57297;SDS011;43147;50.972;18.210;2023-04-19T00:55:21;29.80;;;16.70;;
57297;SDS011;43147;50.972;18.210;2023-04-19T00:57:47;35.40;;;18.40;;
57297;SDS011;43147;50.972;18.210;2023-04-19T01:00:13;23.70;;;14.20;;
57297;SDS011;43147;50.972;18.210;2023-04-19T01:02:39;25.80;;;15.80;;
57297;SDS011;43147;50.972;18.210;2023-04-19T01:05:07;25.40;;;15.10;;
57297;SDS011;43147;50.972;18.210;2023-04-19T01:07:34;28.10;;;15.10;;
57297;SDS011;43147;50.972;18.210;2023-04-19T01:10:00;23.70;;;14.70;;
57297;SDS011;43147;50.972;18.210;2023-04-19T01:12:25;28.90;;;18.70;;
57297;SDS011;43147;50.972;18.210;2023-04-19T01:14:54;19.50;;;13.30;;
57297;SDS011;43147;50.972;18.210;2023-04-19T01:17:19;30.50;;;17.60;;
57297;SDS011;43147;50.972;18.210;2023-04-19T01:19:47;28.20;;;17.30;;
57297;SDS011;43147;50.972;18.210;2023-04-19T01:22:17;27.90;;;18.00;;
57297;SDS011;43147;50.972;18.210;2023-04-19T01:24:43;28.50;;;17.50;;
57297;SDS011;43147;50.972;18.210;2023-04-19T01:27:09;34.80;;;19.70;;
57297;SDS011;43147;50.972;18.210;2023-04-19T01:29:35;29.90;;;17.70;;
57297;SDS011;43147;50.972;18.210;2023-04-19T01:32:01;38.20;;;20.50;;
57297;SDS011;43147;50.972;18.210;2023-04-19T01:34:26;30.40;;;18.40;;
57297;SDS011;43147;50.972;18.210;2023-04-19T01:36:52;28.70;;;17.90;;
57297;SDS011;43147;50.972;18.210;2023-04-19T01:39:17;36.10;;;19.50;;
57297;SDS011;43147;50.972;18.210;2023-04-19T01:41:43;31.00;;;18.20;;
57297;SDS011;43147;50.972;18.210;2023-04-19T01:44:08;29.20;;;16.30;;
57297;SDS011;43147;50.972;18.210;2023-04-19T01:46:34;28.00;;;18.00;;
57297;SDS011;43147;50.972;18.210;2023-04-19T01:49:03;32.10;;;18.00;;
57297;SDS011;43147;50.972;18.210;2023-04-19T01:51:29;33.10;;;20.00;;
57297;SDS011;43147;50.972;18.210;2023-04-19T01:53:54;36.20;;;19.60;;
57297;SDS011;43147;50.972;18.210;2023-04-19T01:56:20;37.30;;;19.40;;
57297;SDS011;43147;50.972;18.210;2023-04-19T01:58:48;36.30;;;20.70;;
57297;SDS011;43147;50.972;18.210;2023-04-19T02:01:14;34.80;;;21.00;;
57297;SDS011;43147;50.972;18.210;2023-04-19T02:03:39;33.10;;;20.40;;
57297;SDS011;43147;50.972;18.210;2023-04-19T02:06:05;38.00;;;21.40;;
57297;SDS011;43147;50.972;18.210;2023-04-19T02:08:35;28.50;;;17.20;;
57297;SDS011;43147;50.972;18.210;2023-04-19T02:11:05;31.30;;;18.40;;
57297;SDS011;43147;50.972;18.210;2023-04-19T02:13:32;28.30;;;18.90;;
57297;SDS011;43147;50.972;18.210;2023-04-19T02:15:57;32.50;;;19.30;;
57297;SDS011;43147;50.972;18.210;2023-04-19T02:18:23;25.50;;;16.00;;
57297;SDS011;43147;50.972;18.210;2023-04-19T02:20:50;28.10;;;16.90;;
57297;SDS011;43147;50.972;18.210;2023-04-19T02:23:16;31.40;;;19.10;;
57297;SDS011;43147;50.972;18.210;2023-04-19T02:25:41;28.50;;;17.10;;
57297;SDS011;43147;50.972;18.210;2023-04-19T02:28:07;32.50;;;17.80;;
57297;SDS011;43147;50.972;18.210;2023-04-19T02:30:32;27.50;;;17.40;;
57297;SDS011;43147;50.972;18.210;2023-04-19T02:32:58;32.80;;;18.40;;
57297;SDS011;43147;50.972;18.210;2023-04-19T02:35:23;27.70;;;16.10;;
57297;SDS011;43147;50.972;18.210;2023-04-19T02:37:48;21.00;;;13.80;;
57297;SDS011;43147;50.972;18.210;2023-04-19T02:40:14;26.50;;;17.00;;
57297;SDS011;43147;50.972;18.210;2023-04-19T02:42:40;30.20;;;18.40;;
57297;SDS011;43147;50.972;18.210;2023-04-19T02:45:05;31.70;;;16.90;;
57297;SDS011;43147;50.972;18.210;2023-04-19T02:47:32;36.50;;;19.70;;
57297;SDS011;43147;50.972;18.210;2023-04-19T02:49:58;30.00;;;18.90;;
57297;SDS011;43147;50.972;18.210;2023-04-19T02:52:25;37.10;;;20.70;;
57297;SDS011;43147;50.972;18.210;2023-04-19T02:54:50;36.80;;;19.10;;
57297;SDS011;43147;50.972;18.210;2023-04-19T02:57:16;30.90;;;17.00;;
57297;SDS011;43147;50.972;18.210;2023-04-19T02:59:42;35.80;;;19.70;;
57297;SDS011;43147;50.972;18.210;2023-04-19T03:02:07;25.50;;;14.70;;
57297;SDS011;43147;50.972;18.210;2023-04-19T03:04:32;29.20;;;17.50;;
57297;SDS011;43147;50.972;18.210;2023-04-19T03:06:58;27.30;;;17.30;;
57297;SDS011;43147;50.972;18.210;2023-04-19T03:09:24;23.60;;;13.80;;
57297;SDS011;43147;50.972;18.210;2023-04-19T03:11:49;24.50;;;14.20;;
57297;SDS011;43147;50.972;18.210;2023-04-19T03:14:15;22.10;;;13.70;;
57297;SDS011;43147;50.972;18.210;2023-04-19T03:16:40;21.50;;;12.40;;
57297;SDS011;43147;50.972;18.210;2023-04-19T03:19:06;20.70;;;13.30;;
57297;SDS011;43147;50.972;18.210;2023-04-19T03:21:32;17.10;;;10.40;;
57297;SDS011;43147;50.972;18.210;2023-04-19T03:23:58;21.40;;;10.90;;
57297;SDS011;43147;50.972;18.210;2023-04-19T03:26:23;19.20;;;11.10;;
57297;SDS011;43147;50.972;18.210;2023-04-19T03:28:49;16.50;;;10.90;;
57297;SDS011;43147;50.972;18.210;2023-04-19T03:31:15;19.30;;;12.60;;
57297;SDS011;43147;50.972;18.210;2023-04-19T03:33:41;26.70;;;12.70;;
57297;SDS011;43147;50.972;18.210;2023-04-19T03:36:08;19.90;;;11.60;;
57297;SDS011;43147;50.972;18.210;2023-04-19T03:38:33;26.80;;;13.10;;
57297;SDS011;43147;50.972;18.210;2023-04-19T03:40:59;20.60;;;11.20;;
57297;SDS011;43147;50.972;18.210;2023-04-19T03:43:25;24.00;;;13.20;;
57297;SDS011;43147;50.972;18.210;2023-04-19T03:45:50;16.80;;;10.40;;
57297;SDS011;43147;50.972;18.210;2023-04-19T03:48:16;18.30;;;10.60;;
57297;SDS011;43147;50.972;18.210;2023-04-19T03:50:41;20.40;;;12.20;;
57297;SDS011;43147;50.972;18.210;2023-04-19T03:53:07;13.20;;;8.60;;
57297;SDS011;43147;50.972;18.210;2023-04-19T03:55:32;18.00;;;9.40;;
57297;SDS011;43147;50.972;18.210;2023-04-19T03:57:58;24.10;;;11.70;;
57297;SDS011;43147;50.972;18.210;2023-04-19T04:00:23;20.30;;;11.30;;
57297;SDS011;43147;50.972;18.210;2023-04-19T04:02:50;25.10;;;13.20;;
57297;SDS011;43147;50.972;18.210;2023-04-19T04:05:16;21.40;;;11.50;;
57297;SDS011;43147;50.972;18.210;2023-04-19T04:07:41;21.00;;;11.80;;
57297;SDS011;43147;50.972;18.210;2023-04-19T04:10:07;20.60;;;12.20;;
57297;SDS011;43147;50.972;18.210;2023-04-19T04:12:33;21.90;;;12.60;;
57297;SDS011;43147;50.972;18.210;2023-04-19T04:14:58;24.60;;;14.60;;
57297;SDS011;43147;50.972;18.210;2023-04-19T04:17:24;22.20;;;13.40;;
57297;SDS011;43147;50.972;18.210;2023-04-19T04:19:50;26.20;;;14.10;;
57297;SDS011;43147;50.972;18.210;2023-04-19T04:22:15;24.30;;;13.90;;
57297;SDS011;43147;50.972;18.210;2023-04-19T04:24:41;32.80;;;17.10;;
57297;SDS011;43147;50.972;18.210;2023-04-19T04:27:08;22.80;;;13.90;;
57297;SDS011;43147;50.972;18.210;2023-04-19T04:29:37;21.60;;;14.30;;
57297;SDS011;43147;50.972;18.210;2023-04-19T04:32:03;31.00;;;15.30;;
57297;SDS011;43147;50.972;18.210;2023-04-19T04:34:32;21.70;;;12.30;;
57297;SDS011;43147;50.972;18.210;2023-04-19T04:36:58;27.00;;;13.20;;
57297;SDS011;43147;50.972;18.210;2023-04-19T04:39:24;18.90;;;11.60;;
57297;SDS011;43147;50.972;18.210;2023-04-19T04:41:49;22.70;;;11.10;;
57297;SDS011;43147;50.972;18.210;2023-04-19T04:44:17;16.20;;;10.20;;
57297;SDS011;43147;50.972;18.210;2023-04-19T04:46:44;18.00;;;9.50;;
57297;SDS011;43147;50.972;18.210;2023-04-19T04:49:11;14.60;;;9.60;;
57297;SDS011;43147;50.972;18.210;2023-04-19T04:51:37;16.50;;;10.00;;
57297;SDS011;43147;50.972;18.210;2023-04-19T04:54:02;21.10;;;11.50;;
57297;SDS011;43147;50.972;18.210;2023-04-19T04:56:30;25.00;;;14.10;;
57297;SDS011;43147;50.972;18.210;2023-04-19T04:58:55;12.10;;;8.30;;
57297;SDS011;43147;50.972;18.210;2023-04-19T05:01:21;19.80;;;10.50;;
57297;SDS011;43147;50.972;18.210;2023-04-19T05:03:48;16.90;;;10.00;;
57297;SDS011;43147;50.972;18.210;2023-04-19T05:06:17;10.50;;;7.70;;
57297;SDS011;43147;50.972;18.210;2023-04-19T05:08:43;12.80;;;8.50;;
57297;SDS011;43147;50.972;18.210;2023-04-19T05:11:11;15.20;;;6.90;;
57297;SDS011;43147;50.972;18.210;2023-04-19T05:13:37;14.10;;;6.70;;
57297;SDS011;43147;50.972;18.210;2023-04-19T05:16:02;9.80;;;6.70;;
57297;SDS011;43147;50.972;18.210;2023-04-19T05:18:28;11.80;;;6.10;;
57297;SDS011;43147;50.972;18.210;2023-04-19T05:20:53;10.50;;;6.80;;
57297;SDS011;43147;50.972;18.210;2023-04-19T05:23:21;15.00;;;7.10;;
57297;SDS011;43147;50.972;18.210;2023-04-19T05:25:47;20.20;;;7.30;;
57297;SDS011;43147;50.972;18.210;2023-04-19T05:28:12;12.20;;;7.10;;
57297;SDS011;43147;50.972;18.210;2023-04-19T05:30:38;17.90;;;8.70;;
57297;SDS011;43147;50.972;18.210;2023-04-19T05:33:03;17.00;;;9.50;;
57297;SDS011;43147;50.972;18.210;2023-04-19T05:35:29;10.10;;;6.90;;
57297;SDS011;43147;50.972;18.210;2023-04-19T05:37:55;17.30;;;9.30;;
57297;SDS011;43147;50.972;18.210;2023-04-19T05:40:20;16.30;;;9.30;;
57297;SDS011;43147;50.972;18.210;2023-04-19T05:42:48;17.90;;;9.60;;
57297;SDS011;43147;50.972;18.210;2023-04-19T05:45:14;20.60;;;10.30;;
57297;SDS011;43147;50.972;18.210;2023-04-19T05:47:40;16.10;;;10.00;;
57297;SDS011;43147;50.972;18.210;2023-04-19T05:50:06;13.00;;;9.00;;
57297;SDS011;43147;50.972;18.210;2023-04-19T05:52:32;26.90;;;12.10;;
57297;SDS011;43147;50.972;18.210;2023-04-19T05:54:57;20.10;;;12.20;;
57297;SDS011;43147;50.972;18.210;2023-04-19T05:57:23;16.10;;;9.00;;
57297;SDS011;43147;50.972;18.210;2023-04-19T05:59:50;17.20;;;8.80;;
57297;SDS011;43147;50.972;18.210;2023-04-19T06:02:15;15.90;;;8.90;;
57297;SDS011;43147;50.972;18.210;2023-04-19T06:04:41;16.90;;;9.90;;
57297;SDS011;43147;50.972;18.210;2023-04-19T06:07:07;14.80;;;7.50;;
57297;SDS011;43147;50.972;18.210;2023-04-19T06:09:32;15.50;;;8.60;;
57297;SDS011;43147;50.972;18.210;2023-04-19T06:11:58;12.30;;;7.50;;
57297;SDS011;43147;50.972;18.210;2023-04-19T06:14:25;16.60;;;9.30;;
57297;SDS011;43147;50.972;18.210;2023-04-19T06:16:53;25.00;;;12.60;;
57297;SDS011;43147;50.972;18.210;2023-04-19T06:19:18;34.00;;;15.70;;
57297;SDS011;43147;50.972;18.210;2023-04-19T06:21:45;30.00;;;14.50;;
57297;SDS011;43147;50.972;18.210;2023-04-19T06:24:12;21.90;;;11.30;;
57297;SDS011;43147;50.972;18.210;2023-04-19T06:26:37;19.10;;;11.90;;
57297;SDS011;43147;50.972;18.210;2023-04-19T06:29:03;25.70;;;14.10;;
57297;SDS011;43147;50.972;18.210;2023-04-19T06:31:29;25.30;;;14.30;;
57297;SDS011;43147;50.972;18.210;2023-04-19T06:33:55;26.60;;;15.40;;
57297;SDS011;43147;50.972;18.210;2023-04-19T06:36:20;26.20;;;14.40;;
57297;SDS011;43147;50.972;18.210;2023-04-19T06:38:46;27.30;;;14.00;;
57297;SDS011;43147;50.972;18.210;2023-04-19T06:41:12;22.40;;;13.80;;
57297;SDS011;43147;50.972;18.210;2023-04-19T06:43:37;23.20;;;12.00;;
57297;SDS011;43147;50.972;18.210;2023-04-19T06:46:07;18.10;;;11.80;;
57297;SDS011;43147;50.972;18.210;2023-04-19T06:48:34;18.60;;;12.60;;
57297;SDS011;43147;50.972;18.210;2023-04-19T06:50:59;20.30;;;12.70;;
57297;SDS011;43147;50.972;18.210;2023-04-19T06:53:25;15.90;;;11.30;;
57297;SDS011;43147;50.972;18.210;2023-04-19T06:55:59;17.20;;;12.00;;
57297;SDS011;43147;50.972;18.210;2023-04-19T06:58:26;19.60;;;10.40;;
57297;SDS011;43147;50.972;18.210;2023-04-19T07:00:53;16.80;;;10.90;;
57297;SDS011;43147;50.972;18.210;2023-04-19T07:03:19;15.60;;;10.40;;
57297;SDS011;43147;50.972;18.210;2023-04-19T07:05:45;17.00;;;10.90;;
57297;SDS011;43147;50.972;18.210;2023-04-19T07:08:10;17.90;;;11.50;;
57297;SDS011;43147;50.972;18.210;2023-04-19T07:10:36;18.60;;;12.50;;
57297;SDS011;43147;50.972;18.210;2023-04-19T07:13:01;18.00;;;10.80;;
57297;SDS011;43147;50.972;18.210;2023-04-19T07:15:27;18.10;;;11.90;;
57297;SDS011;43147;50.972;18.210;2023-04-19T07:17:52;16.40;;;12.20;;
57297;SDS011;43147;50.972;18.210;2023-04-19T07:20:18;17.10;;;12.40;;
57297;SDS011;43147;50.972;18.210;2023-04-19T07:22:43;15.00;;;10.40;;
57297;SDS011;43147;50.972;18.210;2023-04-19T07:25:09;19.00;;;12.20;;
57297;SDS011;43147;50.972;18.210;2023-04-19T07:27:35;23.70;;;13.10;;
57297;SDS011;43147;50.972;18.210;2023-04-19T07:30:01;22.30;;;12.60;;
57297;SDS011;43147;50.972;18.210;2023-04-19T07:32:26;20.70;;;12.50;;
57297;SDS011;43147;50.972;18.210;2023-04-19T07:34:52;23.10;;;12.40;;
57297;SDS011;43147;50.972;18.210;2023-04-19T07:37:18;20.70;;;13.00;;
57297;SDS011;43147;50.972;18.210;2023-04-19T07:39:44;18.70;;;12.40;;
57297;SDS011;43147;50.972;18.210;2023-04-19T07:42:10;19.80;;;13.80;;
57297;SDS011;43147;50.972;18.210;2023-04-19T07:44:35;19.30;;;13.80;;
57297;SDS011;43147;50.972;18.210;2023-04-19T07:47:02;20.70;;;13.00;;
57297;SDS011;43147;50.972;18.210;2023-04-19T07:49:29;21.70;;;14.00;;
57297;SDS011;43147;50.972;18.210;2023-04-19T07:52:01;19.10;;;13.10;;
57297;SDS011;43147;50.972;18.210;2023-04-19T07:54:27;23.60;;;15.20;;
57297;SDS011;43147;50.972;18.210;2023-04-19T07:56:53;22.60;;;15.10;;
57297;SDS011;43147;50.972;18.210;2023-04-19T07:59:19;20.80;;;14.60;;
57297;SDS011;43147;50.972;18.210;2023-04-19T08:01:44;27.10;;;16.00;;
57297;SDS011;43147;50.972;18.210;2023-04-19T08:04:12;21.10;;;13.60;;
57297;SDS011;43147;50.972;18.210;2023-04-19T08:06:38;25.40;;;14.40;;
57297;SDS011;43147;50.972;18.210;2023-04-19T08:09:04;27.40;;;15.60;;
57297;SDS011;43147;50.972;18.210;2023-04-19T08:11:30;27.10;;;15.40;;
57297;SDS011;43147;50.972;18.210;2023-04-19T08:13:55;24.40;;;16.80;;
57297;SDS011;43147;50.972;18.210;2023-04-19T08:16:21;24.90;;;17.10;;
57297;SDS011;43147;50.972;18.210;2023-04-19T08:18:47;18.40;;;14.10;;
57297;SDS011;43147;50.972;18.210;2023-04-19T08:21:16;21.00;;;14.10;;
57297;SDS011;43147;50.972;18.210;2023-04-19T08:23:42;21.70;;;13.80;;
57297;SDS011;43147;50.972;18.210;2023-04-19T08:26:07;32.90;;;17.80;;
57297;SDS011;43147;50.972;18.210;2023-04-19T08:28:33;26.70;;;16.80;;
57297;SDS011;43147;50.972;18.210;2023-04-19T08:30:58;29.80;;;17.60;;
57297;SDS011;43147;50.972;18.210;2023-04-19T08:33:24;30.50;;;16.90;;
57297;SDS011;43147;50.972;18.210;2023-04-19T08:35:50;23.10;;;15.30;;
57297;SDS011;43147;50.972;18.210;2023-04-19T08:38:16;33.00;;;18.40;;
57297;SDS011;43147;50.972;18.210;2023-04-19T08:40:44;37.10;;;17.90;;
57297;SDS011;43147;50.972;18.210;2023-04-19T08:43:11;30.10;;;17.00;;
57297;SDS011;43147;50.972;18.210;2023-04-19T08:45:37;32.20;;;18.90;;
57297;SDS011;43147;50.972;18.210;2023-04-19T08:48:03;28.00;;;16.30;;
57297;SDS011;43147;50.972;18.210;2023-04-19T08:50:29;35.20;;;20.30;;
57297;SDS011;43147;50.972;18.210;2023-04-19T08:52:57;32.90;;;19.80;;
57297;SDS011;43147;50.972;18.210;2023-04-19T08:55:24;39.00;;;23.20;;
57297;SDS011;43147;50.972;18.210;2023-04-19T08:57:50;32.70;;;20.80;;
57297;SDS011;43147;50.972;18.210;2023-04-19T09:00:16;33.50;;;21.10;;
57297;SDS011;43147;50.972;18.210;2023-04-19T09:02:46;31.10;;;18.70;;
57297;SDS011;43147;50.972;18.210;2023-04-19T09:05:13;26.80;;;19.90;;
57297;SDS011;43147;50.972;18.210;2023-04-19T09:07:40;24.60;;;17.80;;
57297;SDS011;43147;50.972;18.210;2023-04-19T09:10:07;33.20;;;20.00;;
57297;SDS011;43147;50.972;18.210;2023-04-19T09:12:34;32.60;;;20.30;;
57297;SDS011;43147;50.972;18.210;2023-04-19T09:15:01;38.40;;;23.90;;
57297;SDS011;43147;50.972;18.210;2023-04-19T09:17:32;32.80;;;20.40;;
57297;SDS011;43147;50.972;18.210;2023-04-19T09:20:02;39.80;;;24.40;;
57297;SDS011;43147;50.972;18.210;2023-04-19T09:22:29;33.90;;;20.60;;
57297;SDS011;43147;50.972;18.210;2023-04-19T09:24:55;34.40;;;23.70;;
57297;SDS011;43147;50.972;18.210;2023-04-19T09:27:33;36.80;;;24.20;;
57297;SDS011;43147;50.972;18.210;2023-04-19T09:30:01;38.00;;;21.00;;
57297;SDS011;43147;50.972;18.210;2023-04-19T09:32:28;47.90;;;26.80;;
57297;SDS011;43147;50.972;18.210;2023-04-19T09:35:10;33.40;;;21.30;;
57297;SDS011;43147;50.972;18.210;2023-04-19T09:37:35;49.00;;;27.60;;
57297;SDS011;43147;50.972;18.210;2023-04-19T09:40:22;45.40;;;27.10;;
57297;SDS011;43147;50.972;18.210;2023-04-19T09:45:14;41.20;;;23.20;;
57297;SDS011;43147;50.972;18.210;2023-04-19T09:47:39;48.30;;;26.10;;
57297;SDS011;43147;50.972;18.210;2023-04-19T09:50:09;46.30;;;26.10;;
57297;SDS011;43147;50.972;18.210;2023-04-19T09:52:36;43.60;;;26.00;;
57297;SDS011;43147;50.972;18.210;2023-04-19T09:55:05;45.10;;;23.80;;
57297;SDS011;43147;50.972;18.210;2023-04-19T09:57:31;58.80;;;30.10;;
57297;SDS011;43147;50.972;18.210;2023-04-19T10:03:23;49.60;;;31.00;;
57297;SDS011;43147;50.972;18.210;2023-04-19T10:05:51;44.20;;;26.00;;
57297;SDS011;43147;50.972;18.210;2023-04-19T10:08:16;38.70;;;25.30;;
57297;SDS011;43147;50.972;18.210;2023-04-19T10:10:44;42.70;;;27.10;;
57297;SDS011;43147;50.972;18.210;2023-04-19T10:13:10;43.20;;;25.70;;
57297;SDS011;43147;50.972;18.210;2023-04-19T10:15:37;37.30;;;25.10;;
57297;SDS011;43147;50.972;18.210;2023-04-19T10:18:04;41.90;;;26.90;;
57297;SDS011;43147;50.972;18.210;2023-04-19T10:20:46;48.50;;;26.20;;
57297;SDS011;43147;50.972;18.210;2023-04-19T10:23:16;45.30;;;29.00;;
57297;SDS011;43147;50.972;18.210;2023-04-19T10:25:46;44.00;;;25.70;;
57297;SDS011;43147;50.972;18.210;2023-04-19T10:28:16;42.50;;;24.60;;
57297;SDS011;43147;50.972;18.210;2023-04-19T10:30:58;46.60;;;28.30;;
57297;SDS011;43147;50.972;18.210;2023-04-19T10:33:30;48.70;;;28.90;;
57297;SDS011;43147;50.972;18.210;2023-04-19T10:36:00;49.10;;;29.60;;
57297;SDS011;43147;50.972;18.210;2023-04-19T10:41:08;45.80;;;28.90;;
57297;SDS011;43147;50.972;18.210;2023-04-19T10:43:39;47.40;;;27.40;;
57297;SDS011;43147;50.972;18.210;2023-04-19T10:46:08;52.40;;;32.30;;
57297;SDS011;43147;50.972;18.210;2023-04-19T10:54:06;38.10;;;25.20;;
57297;SDS011;43147;50.972;18.210;2023-04-19T10:59:23;41.70;;;27.30;;
57297;SDS011;43147;50.972;18.210;2023-04-19T11:01:54;47.70;;;27.30;;
57297;SDS011;43147;50.972;18.210;2023-04-19T11:04:22;38.30;;;21.30;;
57297;SDS011;43147;50.972;18.210;2023-04-19T11:09:23;42.50;;;25.10;;
57297;SDS011;43147;50.972;18.210;2023-04-19T11:14:25;37.60;;;24.40;;
57297;SDS011;43147;50.972;18.210;2023-04-19T11:16:52;37.90;;;22.90;;
57297;SDS011;43147;50.972;18.210;2023-04-19T11:19:18;44.00;;;26.70;;
57297;SDS011;43147;50.972;18.210;2023-04-19T11:21:44;42.40;;;27.40;;
57297;SDS011;43147;50.972;18.210;2023-04-19T11:24:10;46.40;;;26.50;;
57297;SDS011;43147;50.972;18.210;2023-04-19T11:26:36;46.60;;;26.00;;
57297;SDS011;43147;50.972;18.210;2023-04-19T11:29:02;43.60;;;27.20;;
57297;SDS011;43147;50.972;18.210;2023-04-19T11:31:33;35.50;;;24.10;;
57297;SDS011;43147;50.972;18.210;2023-04-19T11:33:59;41.20;;;27.70;;
57297;SDS011;43147;50.972;18.210;2023-04-19T11:36:25;32.50;;;23.80;;
57297;SDS011;43147;50.972;18.210;2023-04-19T11:38:51;40.30;;;26.60;;
57297;SDS011;43147;50.972;18.210;2023-04-19T11:41:17;43.50;;;26.80;;
57297;SDS011;43147;50.972;18.210;2023-04-19T11:43:43;41.80;;;25.70;;
57297;SDS011;43147;50.972;18.210;2023-04-19T11:46:12;36.20;;;24.50;;
57297;SDS011;43147;50.972;18.210;2023-04-19T11:48:48;46.30;;;25.20;;
57297;SDS011;43147;50.972;18.210;2023-04-19T11:51:19;36.20;;;25.10;;
57297;SDS011;43147;50.972;18.210;2023-04-19T11:53:45;30.30;;;22.70;;
57297;SDS011;43147;50.972;18.210;2023-04-19T11:56:11;30.70;;;21.80;;
57297;SDS011;43147;50.972;18.210;2023-04-19T11:58:37;33.00;;;23.00;;
57297;SDS011;43147;50.972;18.210;2023-04-19T12:01:14;37.50;;;27.20;;
57297;SDS011;43147;50.972;18.210;2023-04-19T12:03:44;41.70;;;26.80;;
57297;SDS011;43147;50.972;18.210;2023-04-19T12:08:50;43.80;;;26.60;;
57297;SDS011;43147;50.972;18.210;2023-04-19T12:11:17;42.20;;;27.10;;
57297;SDS011;43147;50.972;18.210;2023-04-19T12:14:05;43.00;;;28.40;;
57297;SDS011;43147;50.972;18.210;2023-04-19T12:16:35;36.50;;;28.10;;
57297;SDS011;43147;50.972;18.210;2023-04-19T12:19:09;35.90;;;24.00;;
57297;SDS011;43147;50.972;18.210;2023-04-19T12:21:38;36.10;;;24.20;;
57297;SDS011;43147;50.972;18.210;2023-04-19T12:24:04;40.60;;;24.50;;
57297;SDS011;43147;50.972;18.210;2023-04-19T12:26:30;125.00;;;60.20;;
57297;SDS011;43147;50.972;18.210;2023-04-19T12:28:56;76.90;;;41.00;;
57297;SDS011;43147;50.972;18.210;2023-04-19T12:31:25;53.00;;;29.20;;
57297;SDS011;43147;50.972;18.210;2023-04-19T12:33:51;50.40;;;33.30;;
57297;SDS011;43147;50.972;18.210;2023-04-19T12:36:17;42.80;;;30.50;;
57297;SDS011;43147;50.972;18.210;2023-04-19T12:38:43;38.80;;;31.30;;
57297;SDS011;43147;50.972;18.210;2023-04-19T12:41:09;52.70;;;36.60;;
57297;SDS011;43147;50.972;18.210;2023-04-19T12:43:35;46.00;;;32.10;;
57297;SDS011;43147;50.972;18.210;2023-04-19T12:46:01;38.90;;;27.30;;
57297;SDS011;43147;50.972;18.210;2023-04-19T12:48:27;49.50;;;30.30;;
57297;SDS011;43147;50.972;18.210;2023-04-19T12:50:54;40.80;;;30.70;;
57297;SDS011;43147;50.972;18.210;2023-04-19T12:53:19;36.10;;;28.10;;
57297;SDS011;43147;50.972;18.210;2023-04-19T12:55:47;37.40;;;27.00;;
57297;SDS011;43147;50.972;18.210;2023-04-19T12:58:14;43.60;;;29.20;;
57297;SDS011;43147;50.972;18.210;2023-04-19T13:00:42;39.60;;;25.90;;
57297;SDS011;43147;50.972;18.210;2023-04-19T13:03:08;35.70;;;23.90;;
57297;SDS011;43147;50.972;18.210;2023-04-19T13:05:36;39.50;;;26.40;;
57297;SDS011;43147;50.972;18.210;2023-04-19T13:08:05;37.90;;;25.80;;
57297;SDS011;43147;50.972;18.210;2023-04-19T13:10:30;35.90;;;24.70;;
57297;SDS011;43147;50.972;18.210;2023-04-19T13:12:56;35.30;;;25.70;;
57297;SDS011;43147;50.972;18.210;2023-04-19T13:15:23;32.80;;;23.30;;
57297;SDS011;43147;50.972;18.210;2023-04-19T13:17:49;36.60;;;22.70;;
57297;SDS011;43147;50.972;18.210;2023-04-19T13:20:16;36.10;;;24.20;;
57297;SDS011;43147;50.972;18.210;2023-04-19T13:22:43;34.00;;;23.00;;
57297;SDS011;43147;50.972;18.210;2023-04-19T13:25:09;38.50;;;26.00;;
57297;SDS011;43147;50.972;18.210;2023-04-19T13:27:35;38.40;;;27.20;;
57297;SDS011;43147;50.972;18.210;2023-04-19T13:30:00;37.10;;;25.50;;
57297;SDS011;43147;50.972;18.210;2023-04-19T13:32:26;34.00;;;26.40;;
57297;SDS011;43147;50.972;18.210;2023-04-19T13:34:51;40.40;;;28.10;;
57297;SDS011;43147;50.972;18.210;2023-04-19T13:37:17;46.70;;;29.70;;
57297;SDS011;43147;50.972;18.210;2023-04-19T13:39:43;41.50;;;28.70;;
57297;SDS011;43147;50.972;18.210;2023-04-19T13:42:09;42.50;;;28.70;;
57297;SDS011;43147;50.972;18.210;2023-04-19T13:44:34;51.90;;;31.70;;
57297;SDS011;43147;50.972;18.210;2023-04-19T13:47:00;63.70;;;36.40;;
57297;SDS011;43147;50.972;18.210;2023-04-19T13:49:26;50.10;;;31.70;;
57297;SDS011;43147;50.972;18.210;2023-04-19T13:51:52;43.50;;;28.50;;
57297;SDS011;43147;50.972;18.210;2023-04-19T13:54:17;42.30;;;29.90;;
57297;SDS011;43147;50.972;18.210;2023-04-19T13:56:43;40.70;;;27.30;;
57297;SDS011;43147;50.972;18.210;2023-04-19T13:59:09;39.40;;;25.00;;
57297;SDS011;43147;50.972;18.210;2023-04-19T14:01:35;39.30;;;25.30;;
57297;SDS011;43147;50.972;18.210;2023-04-19T14:04:01;37.00;;;24.30;;
57297;SDS011;43147;50.972;18.210;2023-04-19T14:06:26;39.50;;;25.80;;
57297;SDS011;43147;50.972;18.210;2023-04-19T14:08:52;34.40;;;24.20;;
57297;SDS011;43147;50.972;18.210;2023-04-19T14:11:20;34.00;;;24.40;;
57297;SDS011;43147;50.972;18.210;2023-04-19T14:13:46;44.40;;;25.90;;
57297;SDS011;43147;50.972;18.210;2023-04-19T14:16:12;44.90;;;27.00;;
57297;SDS011;43147;50.972;18.210;2023-04-19T14:18:38;35.00;;;23.20;;
57297;SDS011;43147;50.972;18.210;2023-04-19T14:21:04;37.30;;;26.50;;
57297;SDS011;43147;50.972;18.210;2023-04-19T14:23:31;45.10;;;28.40;;
57297;SDS011;43147;50.972;18.210;2023-04-19T14:25:57;40.40;;;27.20;;
57297;SDS011;43147;50.972;18.210;2023-04-19T14:28:22;37.40;;;26.30;;
57297;SDS011;43147;50.972;18.210;2023-04-19T14:30:48;44.70;;;26.20;;
57297;SDS011;43147;50.972;18.210;2023-04-19T14:33:14;40.30;;;25.90;;